Terminal Aerodrome Forecast
Issued by NWS

Home | Current Version | Previous Version | Text Only | Print | Product List | Glossary On
Versions: 1 2 3 4 5 6 7 8 9 10 11 12 13 14
000
FTUS44 KJAN 221133
TAFGTR
TAF
KGTR 221133Z 2212/2312 04006KT P6SM BKN003 OVC023
     FM221500 36006KT P6SM OVC007
     FM221600 36006KT P6SM BKN015
     FM221800 VRB05KT P6SM BKN035
     FM222000 12004KT P6SM SKC
     FM230600 VRB04KT 1SM BR SCT003=

USA.gov is the U.S. government's official web portal to all federal, state and local government web resources and services.